sensor_id;sensor_type;location;lat;lon;timestamp;P1;durP1;ratioP1;P2;durP2;ratioP2
19436;SDS011;9854;50.968;4.168;2023-02-01T00:01:26;29.87;;;8.43;;
19436;SDS011;9854;50.968;4.168;2023-02-01T00:03:55;37.80;;;8.67;;
19436;SDS011;9854;50.968;4.168;2023-02-01T00:06:20;27.03;;;8.07;;
19436;SDS011;9854;50.968;4.168;2023-02-01T00:08:46;25.27;;;7.70;;
19436;SDS011;9854;50.968;4.168;2023-02-01T00:11:12;26.10;;;8.10;;
19436;SDS011;9854;50.968;4.168;2023-02-01T00:13:39;32.47;;;9.43;;
19436;SDS011;9854;50.968;4.168;2023-02-01T00:16:06;26.10;;;7.77;;
19436;SDS011;9854;50.968;4.168;2023-02-01T00:18:37;23.20;;;7.50;;
19436;SDS011;9854;50.968;4.168;2023-02-01T00:21:03;32.30;;;8.30;;
19436;SDS011;9854;50.968;4.168;2023-02-01T00:23:31;23.30;;;7.17;;
19436;SDS011;9854;50.968;4.168;2023-02-01T00:26:02;34.40;;;8.40;;
19436;SDS011;9854;50.968;4.168;2023-02-01T00:28:29;25.13;;;7.37;;
19436;SDS011;9854;50.968;4.168;2023-02-01T00:30:56;30.17;;;7.93;;
19436;SDS011;9854;50.968;4.168;2023-02-01T00:33:22;18.17;;;6.60;;
19436;SDS011;9854;50.968;4.168;2023-02-01T00:35:48;21.20;;;6.33;;
19436;SDS011;9854;50.968;4.168;2023-02-01T00:38:14;24.67;;;6.60;;
19436;SDS011;9854;50.968;4.168;2023-02-01T00:40:40;28.30;;;6.63;;
19436;SDS011;9854;50.968;4.168;2023-02-01T00:43:05;24.97;;;6.70;;
19436;SDS011;9854;50.968;4.168;2023-02-01T00:45:31;25.90;;;6.27;;
19436;SDS011;9854;50.968;4.168;2023-02-01T00:47:56;22.30;;;6.43;;
19436;SDS011;9854;50.968;4.168;2023-02-01T00:50:22;27.80;;;6.63;;
19436;SDS011;9854;50.968;4.168;2023-02-01T00:52:48;28.90;;;6.97;;
19436;SDS011;9854;50.968;4.168;2023-02-01T00:55:13;28.00;;;6.90;;
19436;SDS011;9854;50.968;4.168;2023-02-01T00:57:39;26.37;;;6.70;;
19436;SDS011;9854;50.968;4.168;2023-02-01T01:00:05;38.90;;;7.47;;
19436;SDS011;9854;50.968;4.168;2023-02-01T01:02:31;33.50;;;6.80;;
19436;SDS011;9854;50.968;4.168;2023-02-01T01:04:56;29.50;;;6.80;;
19436;SDS011;9854;50.968;4.168;2023-02-01T01:07:22;32.50;;;6.63;;
19436;SDS011;9854;50.968;4.168;2023-02-01T01:09:47;26.83;;;6.40;;
19436;SDS011;9854;50.968;4.168;2023-02-01T01:12:13;24.30;;;6.27;;
19436;SDS011;9854;50.968;4.168;2023-02-01T01:14:39;23.83;;;6.40;;
19436;SDS011;9854;50.968;4.168;2023-02-01T01:17:04;25.03;;;6.83;;
19436;SDS011;9854;50.968;4.168;2023-02-01T01:19:30;29.57;;;6.93;;
19436;SDS011;9854;50.968;4.168;2023-02-01T01:21:55;30.50;;;6.53;;
19436;SDS011;9854;50.968;4.168;2023-02-01T01:24:21;30.13;;;6.07;;
19436;SDS011;9854;50.968;4.168;2023-02-01T01:26:47;23.27;;;5.83;;
19436;SDS011;9854;50.968;4.168;2023-02-01T01:29:12;24.43;;;6.63;;
19436;SDS011;9854;50.968;4.168;2023-02-01T01:31:38;34.93;;;7.10;;
19436;SDS011;9854;50.968;4.168;2023-02-01T01:34:04;29.97;;;6.37;;
19436;SDS011;9854;50.968;4.168;2023-02-01T01:36:29;30.70;;;6.97;;
19436;SDS011;9854;50.968;4.168;2023-02-01T01:38:55;29.13;;;6.13;;
19436;SDS011;9854;50.968;4.168;2023-02-01T01:41:22;22.70;;;5.80;;
19436;SDS011;9854;50.968;4.168;2023-02-01T01:43:58;27.33;;;6.10;;
19436;SDS011;9854;50.968;4.168;2023-02-01T01:46:32;23.47;;;6.63;;
19436;SDS011;9854;50.968;4.168;2023-02-01T01:51:42;18.67;;;5.20;;
19436;SDS011;9854;50.968;4.168;2023-02-01T01:54:17;25.00;;;6.07;;
19436;SDS011;9854;50.968;4.168;2023-02-01T01:56:53;30.67;;;6.20;;
19436;SDS011;9854;50.968;4.168;2023-02-01T01:59:24;22.67;;;5.97;;
19436;SDS011;9854;50.968;4.168;2023-02-01T02:01:50;20.47;;;5.60;;
19436;SDS011;9854;50.968;4.168;2023-02-01T02:04:17;26.63;;;6.23;;
19436;SDS011;9854;50.968;4.168;2023-02-01T02:07:03;22.53;;;6.10;;
19436;SDS011;9854;50.968;4.168;2023-02-01T02:09:33;27.57;;;5.80;;
19436;SDS011;9854;50.968;4.168;2023-02-01T02:11:59;27.17;;;6.43;;
19436;SDS011;9854;50.968;4.168;2023-02-01T02:14:24;25.43;;;6.17;;
19436;SDS011;9854;50.968;4.168;2023-02-01T02:25:36;32.47;;;6.70;;
19436;SDS011;9854;50.968;4.168;2023-02-01T02:34:46;27.20;;;6.83;;
19436;SDS011;9854;50.968;4.168;2023-02-01T02:37:30;27.77;;;7.03;;
19436;SDS011;9854;50.968;4.168;2023-02-01T02:40:14;25.20;;;7.40;;
19436;SDS011;9854;50.968;4.168;2023-02-01T02:46:23;31.03;;;7.60;;
19436;SDS011;9854;50.968;4.168;2023-02-01T02:49:15;23.17;;;6.83;;
19436;SDS011;9854;50.968;4.168;2023-02-01T02:51:59;29.67;;;7.40;;
19436;SDS011;9854;50.968;4.168;2023-02-01T02:54:48;25.80;;;7.03;;
19436;SDS011;9854;50.968;4.168;2023-02-01T02:57:26;24.80;;;7.10;;
19436;SDS011;9854;50.968;4.168;2023-02-01T03:00:12;25.47;;;6.13;;
19436;SDS011;9854;50.968;4.168;2023-02-01T03:03:03;23.13;;;6.30;;
19436;SDS011;9854;50.968;4.168;2023-02-01T03:05:50;22.40;;;6.70;;
19436;SDS011;9854;50.968;4.168;2023-02-01T03:08:20;27.03;;;6.20;;
19436;SDS011;9854;50.968;4.168;2023-02-01T03:10:54;27.83;;;7.43;;
19436;SDS011;9854;50.968;4.168;2023-02-01T03:19:26;33.87;;;6.97;;
19436;SDS011;9854;50.968;4.168;2023-02-01T03:21:59;26.43;;;6.93;;
19436;SDS011;9854;50.968;4.168;2023-02-01T03:24:34;29.67;;;6.70;;
19436;SDS011;9854;50.968;4.168;2023-02-01T03:30:20;23.97;;;6.50;;
19436;SDS011;9854;50.968;4.168;2023-02-01T03:32:51;26.10;;;6.07;;
19436;SDS011;9854;50.968;4.168;2023-02-01T03:46:17;28.43;;;6.10;;
19436;SDS011;9854;50.968;4.168;2023-02-01T03:48:47;32.57;;;6.27;;
19436;SDS011;9854;50.968;4.168;2023-02-01T03:51:14;25.67;;;6.93;;
19436;SDS011;9854;50.968;4.168;2023-02-01T03:53:42;30.63;;;6.33;;
19436;SDS011;9854;50.968;4.168;2023-02-01T03:56:12;33.60;;;6.90;;
19436;SDS011;9854;50.968;4.168;2023-02-01T03:58:39;42.50;;;7.70;;
19436;SDS011;9854;50.968;4.168;2023-02-01T04:01:05;25.17;;;6.47;;
19436;SDS011;9854;50.968;4.168;2023-02-01T04:03:30;26.03;;;6.53;;
19436;SDS011;9854;50.968;4.168;2023-02-01T04:05:57;31.50;;;6.53;;
19436;SDS011;9854;50.968;4.168;2023-02-01T04:08:23;26.10;;;5.93;;
19436;SDS011;9854;50.968;4.168;2023-02-01T04:10:48;31.53;;;6.90;;
19436;SDS011;9854;50.968;4.168;2023-02-01T04:13:14;39.63;;;7.63;;
19436;SDS011;9854;50.968;4.168;2023-02-01T04:15:40;31.77;;;7.07;;
19436;SDS011;9854;50.968;4.168;2023-02-01T04:18:05;32.93;;;7.27;;
19436;SDS011;9854;50.968;4.168;2023-02-01T04:20:31;31.10;;;7.17;;
19436;SDS011;9854;50.968;4.168;2023-02-01T04:22:57;26.13;;;6.47;;
19436;SDS011;9854;50.968;4.168;2023-02-01T04:25:23;28.20;;;6.77;;
19436;SDS011;9854;50.968;4.168;2023-02-01T04:27:48;29.07;;;7.00;;
19436;SDS011;9854;50.968;4.168;2023-02-01T04:30:14;36.27;;;7.03;;
19436;SDS011;9854;50.968;4.168;2023-02-01T04:32:40;34.93;;;7.33;;
19436;SDS011;9854;50.968;4.168;2023-02-01T04:35:06;33.37;;;7.23;;
19436;SDS011;9854;50.968;4.168;2023-02-01T04:37:33;42.50;;;7.07;;
19436;SDS011;9854;50.968;4.168;2023-02-01T04:39:58;28.00;;;6.83;;
19436;SDS011;9854;50.968;4.168;2023-02-01T04:42:24;34.57;;;6.67;;
19436;SDS011;9854;50.968;4.168;2023-02-01T04:44:50;34.70;;;7.90;;
19436;SDS011;9854;50.968;4.168;2023-02-01T04:47:16;32.63;;;6.93;;
19436;SDS011;9854;50.968;4.168;2023-02-01T04:49:41;33.30;;;7.50;;
19436;SDS011;9854;50.968;4.168;2023-02-01T04:52:07;27.53;;;6.20;;
19436;SDS011;9854;50.968;4.168;2023-02-01T04:54:33;32.90;;;7.63;;
19436;SDS011;9854;50.968;4.168;2023-02-01T04:56:59;31.77;;;6.00;;
19436;SDS011;9854;50.968;4.168;2023-02-01T04:59:25;31.20;;;6.77;;
19436;SDS011;9854;50.968;4.168;2023-02-01T05:01:53;25.87;;;7.00;;
19436;SDS011;9854;50.968;4.168;2023-02-01T05:04:19;31.00;;;6.40;;
19436;SDS011;9854;50.968;4.168;2023-02-01T05:06:45;33.67;;;7.33;;
19436;SDS011;9854;50.968;4.168;2023-02-01T05:09:10;26.95;;;6.85;;
19436;SDS011;9854;50.968;4.168;2023-02-01T05:11:36;33.13;;;6.70;;
19436;SDS011;9854;50.968;4.168;2023-02-01T05:14:21;35.90;;;6.70;;
19436;SDS011;9854;50.968;4.168;2023-02-01T05:16:47;31.03;;;7.03;;
19436;SDS011;9854;50.968;4.168;2023-02-01T05:19:13;28.83;;;7.10;;
19436;SDS011;9854;50.968;4.168;2023-02-01T05:21:38;32.23;;;6.60;;
19436;SDS011;9854;50.968;4.168;2023-02-01T05:24:04;22.07;;;6.90;;
19436;SDS011;9854;50.968;4.168;2023-02-01T05:26:38;28.87;;;6.63;;
19436;SDS011;9854;50.968;4.168;2023-02-01T05:29:07;29.23;;;7.13;;
19436;SDS011;9854;50.968;4.168;2023-02-01T05:31:34;27.87;;;6.53;;
19436;SDS011;9854;50.968;4.168;2023-02-01T05:34:00;34.17;;;7.63;;
19436;SDS011;9854;50.968;4.168;2023-02-01T05:36:25;32.53;;;7.23;;
19436;SDS011;9854;50.968;4.168;2023-02-01T05:38:51;28.30;;;6.53;;
19436;SDS011;9854;50.968;4.168;2023-02-01T05:41:17;37.57;;;7.50;;
19436;SDS011;9854;50.968;4.168;2023-02-01T05:43:42;32.27;;;6.77;;
19436;SDS011;9854;50.968;4.168;2023-02-01T05:46:08;34.17;;;7.10;;
19436;SDS011;9854;50.968;4.168;2023-02-01T05:48:38;31.60;;;6.37;;
19436;SDS011;9854;50.968;4.168;2023-02-01T05:51:04;29.57;;;6.97;;
19436;SDS011;9854;50.968;4.168;2023-02-01T05:53:30;39.17;;;7.27;;
19436;SDS011;9854;50.968;4.168;2023-02-01T05:55:56;36.87;;;8.13;;
19436;SDS011;9854;50.968;4.168;2023-02-01T05:58:21;36.27;;;7.50;;
19436;SDS011;9854;50.968;4.168;2023-02-01T06:00:47;37.33;;;7.43;;
19436;SDS011;9854;50.968;4.168;2023-02-01T06:03:13;41.77;;;7.43;;
19436;SDS011;9854;50.968;4.168;2023-02-01T06:05:38;28.83;;;6.63;;
19436;SDS011;9854;50.968;4.168;2023-02-01T06:08:04;26.67;;;6.97;;
19436;SDS011;9854;50.968;4.168;2023-02-01T06:10:32;28.50;;;6.97;;
19436;SDS011;9854;50.968;4.168;2023-02-01T06:12:58;28.85;;;7.63;;
19436;SDS011;9854;50.968;4.168;2023-02-01T06:15:23;36.07;;;7.30;;
19436;SDS011;9854;50.968;4.168;2023-02-01T06:17:49;35.67;;;6.93;;
19436;SDS011;9854;50.968;4.168;2023-02-01T06:20:15;34.93;;;8.20;;
19436;SDS011;9854;50.968;4.168;2023-02-01T06:22:41;39.00;;;8.27;;
19436;SDS011;9854;50.968;4.168;2023-02-01T06:25:08;35.57;;;7.57;;
19436;SDS011;9854;50.968;4.168;2023-02-01T06:27:35;30.53;;;8.17;;
19436;SDS011;9854;50.968;4.168;2023-02-01T06:30:01;35.37;;;7.17;;
19436;SDS011;9854;50.968;4.168;2023-02-01T06:32:28;44.67;;;8.60;;
19436;SDS011;9854;50.968;4.168;2023-02-01T06:34:53;30.67;;;7.90;;
19436;SDS011;9854;50.968;4.168;2023-02-01T06:37:20;41.33;;;10.00;;
19436;SDS011;9854;50.968;4.168;2023-02-01T06:39:48;36.23;;;10.03;;
19436;SDS011;9854;50.968;4.168;2023-02-01T06:42:14;45.07;;;11.07;;
19436;SDS011;9854;50.968;4.168;2023-02-01T06:44:39;36.43;;;8.37;;
19436;SDS011;9854;50.968;4.168;2023-02-01T06:47:05;37.37;;;7.93;;
19436;SDS011;9854;50.968;4.168;2023-02-01T06:49:31;37.93;;;8.03;;
19436;SDS011;9854;50.968;4.168;2023-02-01T06:51:57;39.33;;;8.25;;
19436;SDS011;9854;50.968;4.168;2023-02-01T06:54:25;37.47;;;8.17;;
19436;SDS011;9854;50.968;4.168;2023-02-01T06:56:54;39.80;;;8.23;;
19436;SDS011;9854;50.968;4.168;2023-02-01T06:59:20;31.10;;;7.30;;
19436;SDS011;9854;50.968;4.168;2023-02-01T07:01:45;31.33;;;7.30;;
19436;SDS011;9854;50.968;4.168;2023-02-01T07:04:11;41.20;;;7.77;;
19436;SDS011;9854;50.968;4.168;2023-02-01T07:06:38;35.87;;;8.30;;
19436;SDS011;9854;50.968;4.168;2023-02-01T07:09:04;36.73;;;8.20;;
19436;SDS011;9854;50.968;4.168;2023-02-01T07:11:30;39.53;;;7.97;;
19436;SDS011;9854;50.968;4.168;2023-02-01T07:13:56;37.07;;;8.00;;
19436;SDS011;9854;50.968;4.168;2023-02-01T07:16:22;27.17;;;7.57;;
19436;SDS011;9854;50.968;4.168;2023-02-01T07:18:49;34.83;;;7.40;;
19436;SDS011;9854;50.968;4.168;2023-02-01T07:21:16;34.43;;;7.20;;
19436;SDS011;9854;50.968;4.168;2023-02-01T07:23:42;38.00;;;7.33;;
19436;SDS011;9854;50.968;4.168;2023-02-01T07:26:09;27.33;;;6.67;;
19436;SDS011;9854;50.968;4.168;2023-02-01T07:28:37;40.93;;;7.17;;
19436;SDS011;9854;50.968;4.168;2023-02-01T07:31:07;41.10;;;8.00;;
19436;SDS011;9854;50.968;4.168;2023-02-01T07:33:47;39.23;;;7.90;;
19436;SDS011;9854;50.968;4.168;2023-02-01T07:36:16;33.13;;;7.40;;
19436;SDS011;9854;50.968;4.168;2023-02-01T07:38:43;29.88;;;7.75;;
19436;SDS011;9854;50.968;4.168;2023-02-01T07:41:09;28.60;;;7.27;;
19436;SDS011;9854;50.968;4.168;2023-02-01T07:43:35;28.67;;;7.70;;
19436;SDS011;9854;50.968;4.168;2023-02-01T07:46:01;32.63;;;6.93;;
19436;SDS011;9854;50.968;4.168;2023-02-01T07:48:28;39.92;;;8.20;;
19436;SDS011;9854;50.968;4.168;2023-02-01T07:51:07;32.93;;;7.23;;
19436;SDS011;9854;50.968;4.168;2023-02-01T07:53:35;33.37;;;7.10;;
19436;SDS011;9854;50.968;4.168;2023-02-01T07:56:01;33.50;;;6.90;;
19436;SDS011;9854;50.968;4.168;2023-02-01T07:58:27;25.33;;;6.97;;
19436;SDS011;9854;50.968;4.168;2023-02-01T08:00:53;32.07;;;7.20;;
19436;SDS011;9854;50.968;4.168;2023-02-01T08:03:38;34.23;;;8.10;;
19436;SDS011;9854;50.968;4.168;2023-02-01T08:06:05;25.37;;;6.57;;
19436;SDS011;9854;50.968;4.168;2023-02-01T08:08:31;37.53;;;7.57;;
19436;SDS011;9854;50.968;4.168;2023-02-01T08:10:58;33.27;;;7.57;;
19436;SDS011;9854;50.968;4.168;2023-02-01T08:13:24;31.23;;;7.30;;
19436;SDS011;9854;50.968;4.168;2023-02-01T08:15:50;27.43;;;6.93;;
19436;SDS011;9854;50.968;4.168;2023-02-01T08:18:15;34.80;;;7.13;;
19436;SDS011;9854;50.968;4.168;2023-02-01T08:20:43;27.37;;;7.00;;
19436;SDS011;9854;50.968;4.168;2023-02-01T08:23:10;26.77;;;7.60;;
19436;SDS011;9854;50.968;4.168;2023-02-01T08:25:36;34.77;;;7.73;;
19436;SDS011;9854;50.968;4.168;2023-02-01T08:28:04;33.63;;;7.60;;
19436;SDS011;9854;50.968;4.168;2023-02-01T08:30:30;24.37;;;7.00;;
19436;SDS011;9854;50.968;4.168;2023-02-01T08:32:56;30.90;;;6.93;;
19436;SDS011;9854;50.968;4.168;2023-02-01T08:35:22;29.53;;;6.67;;
19436;SDS011;9854;50.968;4.168;2023-02-01T08:37:49;34.97;;;7.53;;
19436;SDS011;9854;50.968;4.168;2023-02-01T08:40:15;25.97;;;7.03;;
19436;SDS011;9854;50.968;4.168;2023-02-01T08:42:41;30.23;;;6.67;;
19436;SDS011;9854;50.968;4.168;2023-02-01T08:45:16;34.70;;;6.97;;
19436;SDS011;9854;50.968;4.168;2023-02-01T08:47:46;33.20;;;7.47;;
19436;SDS011;9854;50.968;4.168;2023-02-01T08:50:12;40.60;;;7.50;;
19436;SDS011;9854;50.968;4.168;2023-02-01T08:52:38;26.20;;;6.60;;
19436;SDS011;9854;50.968;4.168;2023-02-01T08:55:04;31.63;;;6.97;;
19436;SDS011;9854;50.968;4.168;2023-02-01T08:57:31;29.80;;;6.97;;
19436;SDS011;9854;50.968;4.168;2023-02-01T08:59:57;32.80;;;6.87;;
19436;SDS011;9854;50.968;4.168;2023-02-01T09:02:22;32.13;;;7.30;;
19436;SDS011;9854;50.968;4.168;2023-02-01T09:04:48;26.83;;;6.70;;
19436;SDS011;9854;50.968;4.168;2023-02-01T09:07:14;27.97;;;7.00;;
19436;SDS011;9854;50.968;4.168;2023-02-01T09:09:41;33.27;;;8.03;;
19436;SDS011;9854;50.968;4.168;2023-02-01T09:12:07;23.73;;;6.23;;
19436;SDS011;9854;50.968;4.168;2023-02-01T09:14:33;29.37;;;6.63;;
19436;SDS011;9854;50.968;4.168;2023-02-01T09:16:58;36.13;;;7.30;;
19436;SDS011;9854;50.968;4.168;2023-02-01T09:19:24;30.63;;;7.13;;
19436;SDS011;9854;50.968;4.168;2023-02-01T09:21:50;27.50;;;6.10;;
19436;SDS011;9854;50.968;4.168;2023-02-01T09:24:16;26.60;;;6.83;;
19436;SDS011;9854;50.968;4.168;2023-02-01T09:26:42;36.13;;;7.00;;
19436;SDS011;9854;50.968;4.168;2023-02-01T09:29:08;34.90;;;6.73;;
19436;SDS011;9854;50.968;4.168;2023-02-01T09:31:37;24.23;;;5.93;;
19436;SDS011;9854;50.968;4.168;2023-02-01T09:34:03;27.73;;;6.43;;
19436;SDS011;9854;50.968;4.168;2023-02-01T09:36:29;29.63;;;7.17;;
19436;SDS011;9854;50.968;4.168;2023-02-01T09:38:55;24.90;;;6.20;;
19436;SDS011;9854;50.968;4.168;2023-02-01T09:46:46;23.83;;;6.03;;
19436;SDS011;9854;50.968;4.168;2023-02-01T09:49:14;34.53;;;6.47;;
19436;SDS011;9854;50.968;4.168;2023-02-01T09:51:44;25.40;;;6.67;;
19436;SDS011;9854;50.968;4.168;2023-02-01T09:59:29;22.03;;;5.30;;
19436;SDS011;9854;50.968;4.168;2023-02-01T10:02:02;24.43;;;6.10;;
19436;SDS011;9854;50.968;4.168;2023-02-01T10:04:30;25.30;;;6.20;;
19436;SDS011;9854;50.968;4.168;2023-02-01T10:26:25;27.47;;;5.40;;
19436;SDS011;9854;50.968;4.168;2023-02-01T10:28:57;31.03;;;6.40;;
19436;SDS011;9854;50.968;4.168;2023-02-01T10:31:26;27.27;;;5.70;;
19436;SDS011;9854;50.968;4.168;2023-02-01T10:34:01;23.40;;;5.50;;
19436;SDS011;9854;50.968;4.168;2023-02-01T10:39:12;28.10;;;6.10;;
19436;SDS011;9854;50.968;4.168;2023-02-01T10:41:39;23.77;;;5.20;;
19436;SDS011;9854;50.968;4.168;2023-02-01T10:44:10;20.30;;;4.97;;
19436;SDS011;9854;50.968;4.168;2023-02-01T10:46:45;25.58;;;5.40;;
19436;SDS011;9854;50.968;4.168;2023-02-01T10:49:16;24.98;;;5.10;;
19436;SDS011;9854;50.968;4.168;2023-02-01T10:54:53;22.23;;;5.33;;
19436;SDS011;9854;50.968;4.168;2023-02-01T10:57:23;20.77;;;5.00;;
19436;SDS011;9854;50.968;4.168;2023-02-01T10:59:53;23.83;;;5.10;;
19436;SDS011;9854;50.968;4.168;2023-02-01T11:02:20;24.53;;;4.67;;
19436;SDS011;9854;50.968;4.168;2023-02-01T11:07:29;28.08;;;5.10;;
19436;SDS011;9854;50.968;4.168;2023-02-01T11:09:55;20.80;;;4.90;;
19436;SDS011;9854;50.968;4.168;2023-02-01T11:12:32;21.33;;;5.15;;
19436;SDS011;9854;50.968;4.168;2023-02-01T11:17:40;21.48;;;4.97;;
19436;SDS011;9854;50.968;4.168;2023-02-01T11:20:13;20.67;;;4.50;;
19436;SDS011;9854;50.968;4.168;2023-02-01T11:23:02;24.40;;;5.23;;
19436;SDS011;9854;50.968;4.168;2023-02-01T11:25:28;22.30;;;5.30;;
19436;SDS011;9854;50.968;4.168;2023-02-01T11:27:55;13.77;;;3.83;;
19436;SDS011;9854;50.968;4.168;2023-02-01T11:30:31;21.10;;;4.27;;
19436;SDS011;9854;50.968;4.168;2023-02-01T11:33:01;18.13;;;4.20;;
19436;SDS011;9854;50.968;4.168;2023-02-01T11:35:30;16.30;;;3.93;;
19436;SDS011;9854;50.968;4.168;2023-02-01T11:37:57;17.67;;;4.27;;
19436;SDS011;9854;50.968;4.168;2023-02-01T11:40:28;15.25;;;3.80;;
19436;SDS011;9854;50.968;4.168;2023-02-01T11:43:00;18.10;;;3.97;;
19436;SDS011;9854;50.968;4.168;2023-02-01T11:45:28;19.47;;;3.73;;
19436;SDS011;9854;50.968;4.168;2023-02-01T11:47:56;20.17;;;3.73;;
19436;SDS011;9854;50.968;4.168;2023-02-01T11:50:34;14.38;;;3.45;;
19436;SDS011;9854;50.968;4.168;2023-02-01T12:07:20;12.80;;;3.00;;
19436;SDS011;9854;50.968;4.168;2023-02-01T12:13:06;19.02;;;3.35;;
19436;SDS011;9854;50.968;4.168;2023-02-01T12:18:58;12.25;;;3.15;;
19436;SDS011;9854;50.968;4.168;2023-02-01T12:21:34;12.07;;;2.70;;
19436;SDS011;9854;50.968;4.168;2023-02-01T12:24:22;15.68;;;3.75;;
19436;SDS011;9854;50.968;4.168;2023-02-01T12:27:11;13.70;;;3.42;;
19436;SDS011;9854;50.968;4.168;2023-02-01T12:33:00;17.05;;;3.28;;
19436;SDS011;9854;50.968;4.168;2023-02-01T12:35:53;12.05;;;3.15;;
19436;SDS011;9854;50.968;4.168;2023-02-01T12:51:43;10.70;;;2.70;;
19436;SDS011;9854;50.968;4.168;2023-02-01T12:56:51;9.50;;;2.45;;
19436;SDS011;9854;50.968;4.168;2023-02-01T12:59:31;12.70;;;2.70;;
19436;SDS011;9854;50.968;4.168;2023-02-01T13:07:20;11.27;;;2.58;;
19436;SDS011;9854;50.968;4.168;2023-02-01T13:09:51;12.85;;;2.58;;
19436;SDS011;9854;50.968;4.168;2023-02-01T13:12:22;11.32;;;3.22;;
19436;SDS011;9854;50.968;4.168;2023-02-01T13:15:09;14.57;;;3.05;;
19436;SDS011;9854;50.968;4.168;2023-02-01T13:17:44;12.13;;;2.92;;
19436;SDS011;9854;50.968;4.168;2023-02-01T13:20:24;10.52;;;2.45;;
19436;SDS011;9854;50.968;4.168;2023-02-01T13:23:05;12.75;;;2.60;;
19436;SDS011;9854;50.968;4.168;2023-02-01T13:25:45;15.95;;;3.20;;
19436;SDS011;9854;50.968;4.168;2023-02-01T13:37:18;17.63;;;3.13;;
19436;SDS011;9854;50.968;4.168;2023-02-01T13:43:21;15.25;;;3.33;;
19436;SDS011;9854;50.968;4.168;2023-02-01T13:45:52;10.52;;;2.78;;
19436;SDS011;9854;50.968;4.168;2023-02-01T13:48:25;12.75;;;2.80;;
19436;SDS011;9854;50.968;4.168;2023-02-01T13:50:55;15.52;;;3.60;;
19436;SDS011;9854;50.968;4.168;2023-02-01T13:53:26;15.07;;;3.47;;
19436;SDS011;9854;50.968;4.168;2023-02-01T13:56:03;14.40;;;3.15;;
19436;SDS011;9854;50.968;4.168;2023-02-01T13:58:37;13.38;;;3.08;;
19436;SDS011;9854;50.968;4.168;2023-02-01T14:04:05;14.90;;;3.10;;
19436;SDS011;9854;50.968;4.168;2023-02-01T14:11:39;14.75;;;2.80;;
19436;SDS011;9854;50.968;4.168;2023-02-01T14:16:43;16.95;;;3.22;;
19436;SDS011;9854;50.968;4.168;2023-02-01T14:19:20;20.45;;;3.97;;
19436;SDS011;9854;50.968;4.168;2023-02-01T14:21:51;11.02;;;3.33;;
19436;SDS011;9854;50.968;4.168;2023-02-01T14:24:33;13.25;;;3.40;;
19436;SDS011;9854;50.968;4.168;2023-02-01T14:27:02;15.27;;;3.63;;
19436;SDS011;9854;50.968;4.168;2023-02-01T14:29:40;15.13;;;3.83;;
19436;SDS011;9854;50.968;4.168;2023-02-01T14:46:06;12.70;;;3.60;;
19436;SDS011;9854;50.968;4.168;2023-02-01T15:01:24;20.25;;;3.97;;
19436;SDS011;9854;50.968;4.168;2023-02-01T15:09:18;27.58;;;4.50;;
19436;SDS011;9854;50.968;4.168;2023-02-01T15:14:27;15.10;;;4.22;;
19436;SDS011;9854;50.968;4.168;2023-02-01T15:16:54;21.25;;;3.92;;
19436;SDS011;9854;50.968;4.168;2023-02-01T15:19:21;14.40;;;3.58;;
19436;SDS011;9854;50.968;4.168;2023-02-01T15:21:49;19.02;;;4.55;;
19436;SDS011;9854;50.968;4.168;2023-02-01T15:24:27;17.07;;;3.70;;
19436;SDS011;9854;50.968;4.168;2023-02-01T15:26:55;24.40;;;4.13;;
19436;SDS011;9854;50.968;4.168;2023-02-01T15:29:28;28.08;;;4.97;;
19436;SDS011;9854;50.968;4.168;2023-02-01T15:31:57;14.40;;;3.67;;
19436;SDS011;9854;50.968;4.168;2023-02-01T15:34:23;25.10;;;4.97;;
19436;SDS011;9854;50.968;4.168;2023-02-01T15:37:13;20.38;;;4.35;;
19436;SDS011;9854;50.968;4.168;2023-02-01T15:42:34;25.40;;;4.43;;
19436;SDS011;9854;50.968;4.168;2023-02-01T15:45:01;22.13;;;4.65;;
19436;SDS011;9854;50.968;4.168;2023-02-01T15:47:28;17.02;;;4.03;;
19436;SDS011;9854;50.968;4.168;2023-02-01T15:49:56;24.77;;;4.40;;
19436;SDS011;9854;50.968;4.168;2023-02-01T15:52:25;17.70;;;4.13;;
19436;SDS011;9854;50.968;4.168;2023-02-01T15:55:08;18.55;;;5.07;;
19436;SDS011;9854;50.968;4.168;2023-02-01T15:57:45;21.15;;;5.00;;
19436;SDS011;9854;50.968;4.168;2023-02-01T16:00:20;17.60;;;4.10;;
19436;SDS011;9854;50.968;4.168;2023-02-01T16:02:57;21.98;;;4.88;;
19436;SDS011;9854;50.968;4.168;2023-02-01T16:05:42;25.45;;;4.68;;
19436;SDS011;9854;50.968;4.168;2023-02-01T16:08:14;24.23;;;5.07;;
19436;SDS011;9854;50.968;4.168;2023-02-01T16:10:42;16.90;;;4.73;;
19436;SDS011;9854;50.968;4.168;2023-02-01T16:13:10;20.17;;;5.13;;
19436;SDS011;9854;50.968;4.168;2023-02-01T16:15:36;23.83;;;4.32;;
19436;SDS011;9854;50.968;4.168;2023-02-01T16:18:02;24.15;;;5.93;;
19436;SDS011;9854;50.968;4.168;2023-02-01T16:20:28;22.98;;;4.20;;
19436;SDS011;9854;50.968;4.168;2023-02-01T16:22:55;25.43;;;5.13;;
19436;SDS011;9854;50.968;4.168;2023-02-01T16:25:20;20.70;;;4.90;;
19436;SDS011;9854;50.968;4.168;2023-02-01T16:27:46;22.90;;;5.13;;
19436;SDS011;9854;50.968;4.168;2023-02-01T16:30:13;25.48;;;4.85;;
19436;SDS011;9854;50.968;4.168;2023-02-01T16:32:38;18.05;;;4.63;;
19436;SDS011;9854;50.968;4.168;2023-02-01T16:38:01;24.02;;;6.38;;
19436;SDS011;9854;50.968;4.168;2023-02-01T16:40:38;25.75;;;5.50;;
19436;SDS011;9854;50.968;4.168;2023-02-01T16:43:05;31.17;;;5.70;;
19436;SDS011;9854;50.968;4.168;2023-02-01T16:45:37;24.98;;;5.30;;
19436;SDS011;9854;50.968;4.168;2023-02-01T16:48:05;27.73;;;6.57;;
19436;SDS011;9854;50.968;4.168;2023-02-01T16:50:31;24.60;;;5.88;;
19436;SDS011;9854;50.968;4.168;2023-02-01T16:52:58;20.35;;;5.35;;
19436;SDS011;9854;50.968;4.168;2023-02-01T16:55:24;23.10;;;4.93;;
19436;SDS011;9854;50.968;4.168;2023-02-01T16:57:50;28.67;;;6.10;;
19436;SDS011;9854;50.968;4.168;2023-02-01T17:00:16;25.90;;;5.43;;
19436;SDS011;9854;50.968;4.168;2023-02-01T17:02:44;27.70;;;6.47;;
19436;SDS011;9854;50.968;4.168;2023-02-01T17:05:10;26.33;;;6.05;;
19436;SDS011;9854;50.968;4.168;2023-02-01T17:07:37;25.77;;;5.90;;
19436;SDS011;9854;50.968;4.168;2023-02-01T17:10:05;19.48;;;4.65;;
19436;SDS011;9854;50.968;4.168;2023-02-01T17:12:31;27.77;;;6.37;;
19436;SDS011;9854;50.968;4.168;2023-02-01T17:14:58;35.63;;;6.22;;
19436;SDS011;9854;50.968;4.168;2023-02-01T17:17:25;23.65;;;5.97;;
19436;SDS011;9854;50.968;4.168;2023-02-01T17:20:01;33.67;;;7.63;;
19436;SDS011;9854;50.968;4.168;2023-02-01T17:22:28;35.30;;;6.77;;
19436;SDS011;9854;50.968;4.168;2023-02-01T17:24:54;30.20;;;5.93;;
19436;SDS011;9854;50.968;4.168;2023-02-01T17:27:19;21.92;;;5.55;;
19436;SDS011;9854;50.968;4.168;2023-02-01T17:29:48;33.83;;;7.28;;
19436;SDS011;9854;50.968;4.168;2023-02-01T17:32:16;33.20;;;6.70;;
19436;SDS011;9854;50.968;4.168;2023-02-01T17:34:51;26.53;;;5.90;;
19436;SDS011;9854;50.968;4.168;2023-02-01T17:37:27;25.93;;;5.87;;
19436;SDS011;9854;50.968;4.168;2023-02-01T17:39:55;30.47;;;6.93;;
19436;SDS011;9854;50.968;4.168;2023-02-01T17:42:25;28.33;;;7.03;;
19436;SDS011;9854;50.968;4.168;2023-02-01T17:44:57;33.97;;;7.60;;
19436;SDS011;9854;50.968;4.168;2023-02-01T17:47:26;22.93;;;6.67;;
19436;SDS011;9854;50.968;4.168;2023-02-01T17:49:52;37.80;;;6.43;;
19436;SDS011;9854;50.968;4.168;2023-02-01T17:52:20;25.17;;;6.97;;
19436;SDS011;9854;50.968;4.168;2023-02-01T17:54:47;32.77;;;6.00;;
19436;SDS011;9854;50.968;4.168;2023-02-01T17:57:15;26.35;;;6.20;;
19436;SDS011;9854;50.968;4.168;2023-02-01T17:59:41;24.75;;;6.15;;
19436;SDS011;9854;50.968;4.168;2023-02-01T18:02:28;34.35;;;7.00;;
19436;SDS011;9854;50.968;4.168;2023-02-01T18:04:53;30.52;;;6.55;;
19436;SDS011;9854;50.968;4.168;2023-02-01T18:07:18;27.90;;;6.40;;
19436;SDS011;9854;50.968;4.168;2023-02-01T18:09:44;24.17;;;6.43;;
19436;SDS011;9854;50.968;4.168;2023-02-01T18:12:14;28.80;;;6.67;;